sensor_id;sensor_type;location;lat;lon;timestamp;pressure;altitude;pressure_sealevel;temperature;humidity
84647;BME280;74876;52.404;16.896;2023-12-20T00:00:09;99866.0;;;6.46;92.96
84647;BME280;74876;52.404;16.896;2023-12-20T00:05:09;99865.0;;;6.45;92.93
84647;BME280;74876;52.404;16.896;2023-12-20T00:10:09;99856.0;;;6.46;92.93
84647;BME280;74876;52.404;16.896;2023-12-20T00:15:09;99848.0;;;6.49;92.76
84647;BME280;74876;52.404;16.896;2023-12-20T00:20:09;99843.0;;;6.51;92.69
84647;BME280;74876;52.404;16.896;2023-12-20T00:25:09;99844.0;;;6.48;92.78
84647;BME280;74876;52.404;16.896;2023-12-20T00:30:09;99848.0;;;6.44;92.82
84647;BME280;74876;52.404;16.896;2023-12-20T00:35:09;99839.0;;;6.45;92.77
84647;BME280;74876;52.404;16.896;2023-12-20T00:40:09;99845.0;;;6.41;92.83
84647;BME280;74876;52.404;16.896;2023-12-20T00:45:09;99829.0;;;6.39;92.94
84647;BME280;74876;52.404;16.896;2023-12-20T00:50:09;99839.0;;;6.35;93.12
84647;BME280;74876;52.404;16.896;2023-12-20T00:55:10;99828.0;;;6.38;93.19
84647;BME280;74876;52.404;16.896;2023-12-20T01:00:09;99821.0;;;6.35;93.05
84647;BME280;74876;52.404;16.896;2023-12-20T01:10:09;99825.0;;;6.34;93.12
84647;BME280;74876;52.404;16.896;2023-12-20T01:15:09;99820.0;;;6.33;92.81
84647;BME280;74876;52.404;16.896;2023-12-20T01:20:09;99822.0;;;6.34;92.83
84647;BME280;74876;52.404;16.896;2023-12-20T01:25:09;99823.0;;;6.3;92.82
84647;BME280;74876;52.404;16.896;2023-12-20T01:30:09;99819.0;;;6.29;92.83
84647;BME280;74876;52.404;16.896;2023-12-20T01:35:09;99808.0;;;6.28;92.81
84647;BME280;74876;52.404;16.896;2023-12-20T01:40:09;99804.0;;;6.22;93.0
84647;BME280;74876;52.404;16.896;2023-12-20T01:45:09;99792.0;;;6.18;92.98
84647;BME280;74876;52.404;16.896;2023-12-20T01:50:09;99787.0;;;6.15;93.17
84647;BME280;74876;52.404;16.896;2023-12-20T01:55:09;99787.0;;;6.14;93.17
84647;BME280;74876;52.404;16.896;2023-12-20T02:00:09;99784.0;;;6.16;93.21
84647;BME280;74876;52.404;16.896;2023-12-20T02:05:09;99784.0;;;6.1;93.19
84647;BME280;74876;52.404;16.896;2023-12-20T02:10:09;99771.0;;;6.07;93.22
84647;BME280;74876;52.404;16.896;2023-12-20T02:15:09;99770.0;;;6.07;93.3
84647;BME280;74876;52.404;16.896;2023-12-20T02:20:09;99777.0;;;6.06;93.39
84647;BME280;74876;52.404;16.896;2023-12-20T02:25:09;99774.0;;;6.04;93.39
84647;BME280;74876;52.404;16.896;2023-12-20T02:30:09;99763.0;;;6.03;93.42
84647;BME280;74876;52.404;16.896;2023-12-20T02:35:09;99760.0;;;6.0;93.47
84647;BME280;74876;52.404;16.896;2023-12-20T02:40:09;99754.0;;;5.99;93.5
84647;BME280;74876;52.404;16.896;2023-12-20T02:45:09;99746.0;;;5.97;93.51
84647;BME280;74876;52.404;16.896;2023-12-20T02:50:09;99740.0;;;5.97;93.45
84647;BME280;74876;52.404;16.896;2023-12-20T02:55:09;99755.0;;;5.98;93.53
84647;BME280;74876;52.404;16.896;2023-12-20T03:00:09;99747.0;;;5.94;93.39
84647;BME280;74876;52.404;16.896;2023-12-20T03:05:09;99750.0;;;5.94;93.53
84647;BME280;74876;52.404;16.896;2023-12-20T03:10:09;99744.0;;;5.89;93.43
84647;BME280;74876;52.404;16.896;2023-12-20T03:15:09;99748.0;;;5.91;93.41
84647;BME280;74876;52.404;16.896;2023-12-20T03:20:09;99739.0;;;5.91;93.32
84647;BME280;74876;52.404;16.896;2023-12-20T03:25:09;99726.0;;;5.88;93.36
84647;BME280;74876;52.404;16.896;2023-12-20T03:30:10;99729.0;;;5.88;93.46
84647;BME280;74876;52.404;16.896;2023-12-20T03:35:09;99723.0;;;5.82;93.43
84647;BME280;74876;52.404;16.896;2023-12-20T03:40:09;99720.0;;;5.84;93.58
84647;BME280;74876;52.404;16.896;2023-12-20T03:45:10;99733.0;;;5.82;93.58
84647;BME280;74876;52.404;16.896;2023-12-20T03:50:09;99724.0;;;5.81;93.55
84647;BME280;74876;52.404;16.896;2023-12-20T03:55:09;99725.0;;;5.79;93.51
84647;BME280;74876;52.404;16.896;2023-12-20T04:00:09;99715.0;;;5.83;93.53
84647;BME280;74876;52.404;16.896;2023-12-20T04:05:09;99722.0;;;5.8;93.48
84647;BME280;74876;52.404;16.896;2023-12-20T04:10:10;99714.0;;;5.84;93.7
84647;BME280;74876;52.404;16.896;2023-12-20T04:15:09;99718.0;;;5.8;93.83
84647;BME280;74876;52.404;16.896;2023-12-20T04:20:09;99717.0;;;5.76;93.99
84647;BME280;74876;52.404;16.896;2023-12-20T04:25:09;99717.0;;;5.81;93.9
84647;BME280;74876;52.404;16.896;2023-12-20T04:30:09;99713.0;;;5.77;94.01
84647;BME280;74876;52.404;16.896;2023-12-20T04:35:09;99707.0;;;5.76;94.04
84647;BME280;74876;52.404;16.896;2023-12-20T04:40:09;99704.0;;;5.76;93.99
84647;BME280;74876;52.404;16.896;2023-12-20T04:45:09;99705.0;;;5.82;93.95
84647;BME280;74876;52.404;16.896;2023-12-20T04:50:09;99703.0;;;5.83;93.89
84647;BME280;74876;52.404;16.896;2023-12-20T04:55:09;99703.0;;;5.78;94.0
84647;BME280;74876;52.404;16.896;2023-12-20T05:00:09;99705.0;;;5.77;94.09
84647;BME280;74876;52.404;16.896;2023-12-20T05:05:09;99714.0;;;5.79;94.15
84647;BME280;74876;52.404;16.896;2023-12-20T05:10:09;99704.0;;;5.79;94.16
84647;BME280;74876;52.404;16.896;2023-12-20T05:15:09;99711.0;;;5.85;94.04
84647;BME280;74876;52.404;16.896;2023-12-20T05:25:09;99705.0;;;5.84;93.74
84647;BME280;74876;52.404;16.896;2023-12-20T05:30:09;99712.0;;;5.92;93.17
84647;BME280;74876;52.404;16.896;2023-12-20T05:40:09;99712.0;;;5.89;93.14
84647;BME280;74876;52.404;16.896;2023-12-20T05:45:09;99704.0;;;5.94;92.72
84647;BME280;74876;52.404;16.896;2023-12-20T05:50:09;99700.0;;;5.96;92.49
84647;BME280;74876;52.404;16.896;2023-12-20T05:55:09;99696.0;;;5.96;92.38
84647;BME280;74876;52.404;16.896;2023-12-20T06:00:09;99703.0;;;5.98;92.36
84647;BME280;74876;52.404;16.896;2023-12-20T06:05:09;99706.0;;;6.0;92.15
84647;BME280;74876;52.404;16.896;2023-12-20T06:10:09;99705.0;;;6.01;92.11
84647;BME280;74876;52.404;16.896;2023-12-20T06:15:09;99694.0;;;5.97;92.01
84647;BME280;74876;52.404;16.896;2023-12-20T06:20:09;99694.0;;;6.01;91.81
84647;BME280;74876;52.404;16.896;2023-12-20T06:25:09;99694.0;;;5.96;91.76
84647;BME280;74876;52.404;16.896;2023-12-20T06:35:09;99713.0;;;5.96;91.82
84647;BME280;74876;52.404;16.896;2023-12-20T06:40:09;99721.0;;;6.03;91.32
84647;BME280;74876;52.404;16.896;2023-12-20T06:45:09;99713.0;;;5.96;91.43
84647;BME280;74876;52.404;16.896;2023-12-20T06:50:09;99711.0;;;5.91;91.36
84647;BME280;74876;52.404;16.896;2023-12-20T06:55:09;99718.0;;;5.85;91.4
84647;BME280;74876;52.404;16.896;2023-12-20T07:00:09;99727.0;;;5.91;91.31
84647;BME280;74876;52.404;16.896;2023-12-20T07:05:09;99727.0;;;5.84;91.25
84647;BME280;74876;52.404;16.896;2023-12-20T07:10:09;99735.0;;;5.86;91.23
84647;BME280;74876;52.404;16.896;2023-12-20T07:15:09;99744.0;;;5.85;91.13
84647;BME280;74876;52.404;16.896;2023-12-20T07:20:09;99762.0;;;5.8;90.93
84647;BME280;74876;52.404;16.896;2023-12-20T07:25:09;99758.0;;;5.84;90.89
84647;BME280;74876;52.404;16.896;2023-12-20T07:30:09;99767.0;;;5.78;90.68
84647;BME280;74876;52.404;16.896;2023-12-20T07:35:09;99765.0;;;5.76;90.83
84647;BME280;74876;52.404;16.896;2023-12-20T07:40:09;99766.0;;;5.83;90.91
84647;BME280;74876;52.404;16.896;2023-12-20T07:45:09;99778.0;;;5.78;91.21
84647;BME280;74876;52.404;16.896;2023-12-20T07:50:09;99765.0;;;5.73;91.36
84647;BME280;74876;52.404;16.896;2023-12-20T07:55:09;99768.0;;;5.73;91.36
84647;BME280;74876;52.404;16.896;2023-12-20T08:00:09;99773.0;;;5.75;91.36
84647;BME280;74876;52.404;16.896;2023-12-20T08:05:09;99762.0;;;5.75;91.37
84647;BME280;74876;52.404;16.896;2023-12-20T08:10:09;99751.0;;;5.73;91.36
84647;BME280;74876;52.404;16.896;2023-12-20T08:15:09;99741.0;;;5.71;91.16
84647;BME280;74876;52.404;16.896;2023-12-20T08:20:09;99739.0;;;5.71;90.86
84647;BME280;74876;52.404;16.896;2023-12-20T08:25:09;99742.0;;;5.65;90.65
84647;BME280;74876;52.404;16.896;2023-12-20T08:30:09;99734.0;;;5.67;90.38
84647;BME280;74876;52.404;16.896;2023-12-20T08:35:09;99745.0;;;5.54;89.74
84647;BME280;74876;52.404;16.896;2023-12-20T08:40:09;99757.0;;;5.54;89.51
84647;BME280;74876;52.404;16.896;2023-12-20T08:45:09;99748.0;;;5.62;89.32
84647;BME280;74876;52.404;16.896;2023-12-20T08:50:09;99748.0;;;5.6;89.4
84647;BME280;74876;52.404;16.896;2023-12-20T08:55:09;99743.0;;;5.65;89.8
84647;BME280;74876;52.404;16.896;2023-12-20T09:05:09;99762.0;;;5.62;89.41
84647;BME280;74876;52.404;16.896;2023-12-20T09:10:09;99760.0;;;5.69;88.68
84647;BME280;74876;52.404;16.896;2023-12-20T09:15:09;99742.0;;;5.68;88.28
84647;BME280;74876;52.404;16.896;2023-12-20T09:20:09;99742.0;;;5.7;87.93
84647;BME280;74876;52.404;16.896;2023-12-20T09:25:09;99730.0;;;5.7;87.08
84647;BME280;74876;52.404;16.896;2023-12-20T09:30:09;99727.0;;;5.71;86.6
84647;BME280;74876;52.404;16.896;2023-12-20T09:35:09;99731.0;;;5.89;86.15
84647;BME280;74876;52.404;16.896;2023-12-20T09:40:09;99733.0;;;6.1;85.46
84647;BME280;74876;52.404;16.896;2023-12-20T09:45:09;99734.0;;;6.22;84.05
84647;BME280;74876;52.404;16.896;2023-12-20T09:50:09;99728.0;;;6.31;84.63
84647;BME280;74876;52.404;16.896;2023-12-20T09:55:09;99730.0;;;6.19;83.76
84647;BME280;74876;52.404;16.896;2023-12-20T10:05:09;99712.0;;;6.03;85.31
84647;BME280;74876;52.404;16.896;2023-12-20T10:10:09;99693.0;;;6.06;84.85
84647;BME280;74876;52.404;16.896;2023-12-20T10:15:09;99700.0;;;6.05;84.74
84647;BME280;74876;52.404;16.896;2023-12-20T10:20:09;99667.0;;;6.0;84.3
84647;BME280;74876;52.404;16.896;2023-12-20T10:25:09;99683.0;;;5.95;84.57
84647;BME280;74876;52.404;16.896;2023-12-20T10:30:09;99667.0;;;5.89;84.56
84647;BME280;74876;52.404;16.896;2023-12-20T10:35:09;99665.0;;;5.85;84.36
84647;BME280;74876;52.404;16.896;2023-12-20T10:40:09;99664.0;;;5.84;84.13
84647;BME280;74876;52.404;16.896;2023-12-20T10:45:09;99651.0;;;5.78;84.28
84647;BME280;74876;52.404;16.896;2023-12-20T10:50:09;99652.0;;;5.76;84.3
84647;BME280;74876;52.404;16.896;2023-12-20T10:55:09;99650.0;;;5.81;83.92
84647;BME280;74876;52.404;16.896;2023-12-20T11:00:09;99650.0;;;5.79;83.59
84647;BME280;74876;52.404;16.896;2023-12-20T11:05:09;99632.0;;;5.86;83.88
84647;BME280;74876;52.404;16.896;2023-12-20T11:10:09;99625.0;;;5.88;83.53
84647;BME280;74876;52.404;16.896;2023-12-20T11:15:09;99621.0;;;5.84;84.12
84647;BME280;74876;52.404;16.896;2023-12-20T11:20:09;99603.0;;;5.82;84.69
84647;BME280;74876;52.404;16.896;2023-12-20T11:25:09;99600.0;;;5.79;84.41
84647;BME280;74876;52.404;16.896;2023-12-20T11:30:09;99592.0;;;5.79;84.2
84647;BME280;74876;52.404;16.896;2023-12-20T11:35:09;99593.0;;;5.78;84.37
84647;BME280;74876;52.404;16.896;2023-12-20T11:40:09;99567.0;;;5.82;84.47
84647;BME280;74876;52.404;16.896;2023-12-20T11:45:09;99564.0;;;5.84;85.15
84647;BME280;74876;52.404;16.896;2023-12-20T11:55:09;99560.0;;;5.61;87.62
84647;BME280;74876;52.404;16.896;2023-12-20T12:00:09;99561.0;;;5.57;87.05
84647;BME280;74876;52.404;16.896;2023-12-20T12:05:09;99550.0;;;5.54;87.43
84647;BME280;74876;52.404;16.896;2023-12-20T12:10:09;99531.0;;;5.59;87.38
84647;BME280;74876;52.404;16.896;2023-12-20T12:20:09;99528.0;;;5.88;84.7
84647;BME280;74876;52.404;16.896;2023-12-20T12:25:09;99514.0;;;5.7;84.92
84647;BME280;74876;52.404;16.896;2023-12-20T12:30:09;99520.0;;;5.6;85.22
84647;BME280;74876;52.404;16.896;2023-12-20T12:35:09;99506.0;;;5.57;85.41
84647;BME280;74876;52.404;16.896;2023-12-20T12:40:09;99493.0;;;5.48;85.61
84647;BME280;74876;52.404;16.896;2023-12-20T12:45:09;99493.0;;;5.5;84.97
84647;BME280;74876;52.404;16.896;2023-12-20T12:50:09;99514.0;;;5.53;84.61
84647;BME280;74876;52.404;16.896;2023-12-20T12:55:09;99476.0;;;5.57;84.91
84647;BME280;74876;52.404;16.896;2023-12-20T13:00:09;99489.0;;;5.59;84.48
84647;BME280;74876;52.404;16.896;2023-12-20T13:05:09;99483.0;;;5.61;84.11
84647;BME280;74876;52.404;16.896;2023-12-20T13:10:09;99487.0;;;5.64;83.64
84647;BME280;74876;52.404;16.896;2023-12-20T13:15:10;99478.0;;;5.66;83.32
84647;BME280;74876;52.404;16.896;2023-12-20T13:20:09;99477.0;;;5.65;83.22
84647;BME280;74876;52.404;16.896;2023-12-20T13:25:09;99451.0;;;5.9;83.05
84647;BME280;74876;52.404;16.896;2023-12-20T13:30:09;99423.0;;;5.97;82.29
84647;BME280;74876;52.404;16.896;2023-12-20T13:35:09;99434.0;;;5.87;81.8
84647;BME280;74876;52.404;16.896;2023-12-20T13:40:09;99431.0;;;5.87;81.09
84647;BME280;74876;52.404;16.896;2023-12-20T13:45:09;99430.0;;;5.82;81.61
84647;BME280;74876;52.404;16.896;2023-12-20T13:50:09;99437.0;;;5.8;81.46
84647;BME280;74876;52.404;16.896;2023-12-20T13:55:09;99418.0;;;5.85;81.38
84647;BME280;74876;52.404;16.896;2023-12-20T14:00:09;99416.0;;;5.8;81.35
84647;BME280;74876;52.404;16.896;2023-12-20T14:05:09;99421.0;;;5.81;81.11
84647;BME280;74876;52.404;16.896;2023-12-20T14:10:09;99415.0;;;5.78;81.12
84647;BME280;74876;52.404;16.896;2023-12-20T14:15:09;99400.0;;;5.8;81.44
84647;BME280;74876;52.404;16.896;2023-12-20T14:20:09;99384.0;;;5.82;81.53
84647;BME280;74876;52.404;16.896;2023-12-20T14:25:09;99388.0;;;5.79;81.52
84647;BME280;74876;52.404;16.896;2023-12-20T14:30:09;99391.0;;;5.8;81.06
84647;BME280;74876;52.404;16.896;2023-12-20T14:35:09;99383.0;;;5.81;80.81
84647;BME280;74876;52.404;16.896;2023-12-20T14:40:09;99375.0;;;5.82;80.32
84647;BME280;74876;52.404;16.896;2023-12-20T14:45:09;99372.0;;;5.85;81.2
84647;BME280;74876;52.404;16.896;2023-12-20T14:55:09;99341.0;;;5.79;82.69
84647;BME280;74876;52.404;16.896;2023-12-20T15:00:09;99346.0;;;5.63;82.78
84647;BME280;74876;52.404;16.896;2023-12-20T15:05:09;99336.0;;;5.58;83.78
84647;BME280;74876;52.404;16.896;2023-12-20T15:10:10;99350.0;;;5.53;83.79
84647;BME280;74876;52.404;16.896;2023-12-20T15:15:09;99339.0;;;5.53;83.65
84647;BME280;74876;52.404;16.896;2023-12-20T15:58:03;99320.0;;;11.71;91.67
84647;BME280;74876;52.404;16.896;2023-12-20T15:58:33;99335.0;;;11.72;74.85
84647;BME280;74876;52.404;16.896;2023-12-20T16:00:09;99337.0;;;10.99;68.31
84647;BME280;74876;52.404;16.896;2023-12-20T16:05:09;99326.0;;;8.9;72.48
84647;BME280;74876;52.404;16.896;2023-12-20T16:10:09;99402.0;;;7.81;75.96
84647;BME280;74876;52.404;16.896;2023-12-20T16:15:09;99426.0;;;6.01;77.28
84647;BME280;74876;52.404;16.896;2023-12-20T16:20:09;99377.0;;;5.24;79.91
84647;BME280;74876;52.404;16.896;2023-12-20T16:25:10;99364.0;;;4.64;82.68
84647;BME280;74876;52.404;16.896;2023-12-20T16:30:09;99344.0;;;4.29;83.63
84647;BME280;74876;52.404;16.896;2023-12-20T16:35:09;99351.0;;;3.99;85.01
84647;BME280;74876;52.404;16.896;2023-12-20T16:40:09;99337.0;;;3.63;86.37
84647;BME280;74876;52.404;16.896;2023-12-20T16:45:09;99349.0;;;3.4;87.63
84647;BME280;74876;52.404;16.896;2023-12-20T16:50:10;99360.0;;;3.3;88.34
84647;BME280;74876;52.404;16.896;2023-12-20T16:55:09;99371.0;;;3.18;89.16
84647;BME280;74876;52.404;16.896;2023-12-20T17:00:09;99382.0;;;3.17;89.97
84647;BME280;74876;52.404;16.896;2023-12-20T17:05:09;99382.0;;;3.21;90.64
84647;BME280;74876;52.404;16.896;2023-12-20T17:10:09;99377.0;;;3.24;91.28
84647;BME280;74876;52.404;16.896;2023-12-20T17:15:09;99366.0;;;3.4;91.68
84647;BME280;74876;52.404;16.896;2023-12-20T17:20:09;99367.0;;;3.5;91.86
84647;BME280;74876;52.404;16.896;2023-12-20T17:25:09;99364.0;;;3.59;91.54
84647;BME280;74876;52.404;16.896;2023-12-20T17:30:10;99372.0;;;3.79;91.09
84647;BME280;74876;52.404;16.896;2023-12-20T17:35:09;99374.0;;;3.84;90.91
84647;BME280;74876;52.404;16.896;2023-12-20T17:40:09;99386.0;;;4.0;89.97
84647;BME280;74876;52.404;16.896;2023-12-20T17:45:09;99370.0;;;4.04;89.21
84647;BME280;74876;52.404;16.896;2023-12-20T17:50:09;99388.0;;;4.05;88.52
84647;BME280;74876;52.404;16.896;2023-12-20T17:55:09;99401.0;;;4.09;87.93
84647;BME280;74876;52.404;16.896;2023-12-20T18:00:09;99398.0;;;4.07;87.46
84647;BME280;74876;52.404;16.896;2023-12-20T18:05:09;99409.0;;;4.15;86.92
84647;BME280;74876;52.404;16.896;2023-12-20T18:10:09;99415.0;;;4.14;86.36
84647;BME280;74876;52.404;16.896;2023-12-20T18:15:09;99419.0;;;4.1;85.91
84647;BME280;74876;52.404;16.896;2023-12-20T18:20:09;99434.0;;;4.1;85.19
84647;BME280;74876;52.404;16.896;2023-12-20T18:25:09;99444.0;;;4.08;85.12
84647;BME280;74876;52.404;16.896;2023-12-20T18:30:09;99427.0;;;4.0;84.83
84647;BME280;74876;52.404;16.896;2023-12-20T18:35:10;99442.0;;;4.01;85.0
84647;BME280;74876;52.404;16.896;2023-12-20T18:40:09;99446.0;;;3.84;85.0
84647;BME280;74876;52.404;16.896;2023-12-20T18:45:09;99435.0;;;3.76;85.45
84647;BME280;74876;52.404;16.896;2023-12-20T18:50:09;99443.0;;;3.72;85.64
84647;BME280;74876;52.404;16.896;2023-12-20T18:55:09;99461.0;;;3.63;85.87
84647;BME280;74876;52.404;16.896;2023-12-20T19:00:09;99460.0;;;3.67;86.21
84647;BME280;74876;52.404;16.896;2023-12-20T19:10:09;99447.0;;;3.66;86.1
84647;BME280;74876;52.404;16.896;2023-12-20T19:15:09;99452.0;;;3.8;86.11
84647;BME280;74876;52.404;16.896;2023-12-20T19:20:09;99455.0;;;3.8;86.46
84647;BME280;74876;52.404;16.896;2023-12-20T19:25:09;99438.0;;;3.87;86.47
84647;BME280;74876;52.404;16.896;2023-12-20T19:30:09;99442.0;;;3.91;86.6
84647;BME280;74876;52.404;16.896;2023-12-20T19:35:09;99448.0;;;3.96;86.91
84647;BME280;74876;52.404;16.896;2023-12-20T19:40:09;99446.0;;;4.04;87.19
84647;BME280;74876;52.404;16.896;2023-12-20T19:45:09;99457.0;;;3.92;86.65
84647;BME280;74876;52.404;16.896;2023-12-20T19:50:09;99451.0;;;3.89;86.4
84647;BME280;74876;52.404;16.896;2023-12-20T19:55:09;99448.0;;;3.85;86.17
84647;BME280;74876;52.404;16.896;2023-12-20T20:05:09;99461.0;;;3.93;85.45
84647;BME280;74876;52.404;16.896;2023-12-20T20:10:09;99441.0;;;4.01;84.93
84647;BME280;74876;52.404;16.896;2023-12-20T20:20:09;99441.0;;;4.05;84.88
84647;BME280;74876;52.404;16.896;2023-12-20T20:25:09;99441.0;;;4.09;84.69
84647;BME280;74876;52.404;16.896;2023-12-20T20:30:09;99444.0;;;4.04;84.57
84647;BME280;74876;52.404;16.896;2023-12-20T20:35:09;99439.0;;;3.97;84.46
84647;BME280;74876;52.404;16.896;2023-12-20T20:40:09;99434.0;;;3.88;84.56
84647;BME280;74876;52.404;16.896;2023-12-20T20:45:10;99443.0;;;3.77;84.99
84647;BME280;74876;52.404;16.896;2023-12-20T20:50:09;99468.0;;;3.7;85.2
84647;BME280;74876;52.404;16.896;2023-12-20T20:55:09;99471.0;;;3.69;85.34
84647;BME280;74876;52.404;16.896;2023-12-20T21:00:09;99476.0;;;3.73;85.46
84647;BME280;74876;52.404;16.896;2023-12-20T21:05:09;99477.0;;;3.71;85.64
84647;BME280;74876;52.404;16.896;2023-12-20T21:10:10;99472.0;;;3.79;85.8
84647;BME280;74876;52.404;16.896;2023-12-20T21:15:09;99469.0;;;3.77;85.72
84647;BME280;74876;52.404;16.896;2023-12-20T21:20:09;99476.0;;;3.86;85.51
84647;BME280;74876;52.404;16.896;2023-12-20T21:25:09;99453.0;;;3.93;85.56
84647;BME280;74876;52.404;16.896;2023-12-20T21:30:09;99448.0;;;3.95;85.5
84647;BME280;74876;52.404;16.896;2023-12-20T21:35:09;99458.0;;;4.01;85.29
84647;BME280;74876;52.404;16.896;2023-12-20T21:40:09;99448.0;;;4.08;84.98
84647;BME280;74876;52.404;16.896;2023-12-20T21:45:09;99438.0;;;4.15;84.71
84647;BME280;74876;52.404;16.896;2023-12-20T21:50:10;99445.0;;;4.21;83.98
84647;BME280;74876;52.404;16.896;2023-12-20T21:55:09;99439.0;;;4.21;83.62
84647;BME280;74876;52.404;16.896;2023-12-20T22:00:09;99438.0;;;4.26;83.56
84647;BME280;74876;52.404;16.896;2023-12-20T22:05:09;99438.0;;;4.3;83.48
84647;BME280;74876;52.404;16.896;2023-12-20T22:10:09;99424.0;;;4.3;83.39
84647;BME280;74876;52.404;16.896;2023-12-20T22:15:09;99417.0;;;4.32;83.31
84647;BME280;74876;52.404;16.896;2023-12-20T22:20:09;99425.0;;;4.33;83.1
84647;BME280;74876;52.404;16.896;2023-12-20T22:25:09;99412.0;;;4.36;83.01
84647;BME280;74876;52.404;16.896;2023-12-20T22:30:09;99398.0;;;4.41;82.97
84647;BME280;74876;52.404;16.896;2023-12-20T22:35:09;99396.0;;;4.41;83.07
84647;BME280;74876;52.404;16.896;2023-12-20T22:40:09;99385.0;;;4.42;83.05
84647;BME280;74876;52.404;16.896;2023-12-20T22:45:09;99388.0;;;4.45;82.86
84647;BME280;74876;52.404;16.896;2023-12-20T22:50:09;99383.0;;;4.4;84.41
84647;BME280;74876;52.404;16.896;2023-12-20T22:55:09;99388.0;;;4.32;85.76
84647;BME280;74876;52.404;16.896;2023-12-20T23:00:09;99377.0;;;4.15;86.74
84647;BME280;74876;52.404;16.896;2023-12-20T23:05:09;99377.0;;;4.13;86.97
84647;BME280;74876;52.404;16.896;2023-12-20T23:10:09;99359.0;;;4.11;87.04
84647;BME280;74876;52.404;16.896;2023-12-20T23:15:09;99342.0;;;4.05;87.1
84647;BME280;74876;52.404;16.896;2023-12-20T23:20:10;99356.0;;;4.06;86.98
84647;BME280;74876;52.404;16.896;2023-12-20T23:25:09;99333.0;;;4.07;86.33
84647;BME280;74876;52.404;16.896;2023-12-20T23:30:09;99340.0;;;4.12;86.38
84647;BME280;74876;52.404;16.896;2023-12-20T23:35:10;99334.0;;;4.15;85.73
84647;BME280;74876;52.404;16.896;2023-12-20T23:40:09;99328.0;;;4.15;85.28
84647;BME280;74876;52.404;16.896;2023-12-20T23:45:09;99312.0;;;4.18;85.0
84647;BME280;74876;52.404;16.896;2023-12-20T23:50:09;99307.0;;;4.2;84.68
84647;BME280;74876;52.404;16.896;2023-12-20T23:55:09;99287.0;;;4.2;84.66
